Terminal Aerodrome Forecast
Issued by NWS Charleston, WV

Current Version | Previous Version | Graphics & Text | Print | Product List | Glossary On
Versions: 1 2 3 4 5 6 7 8 9 10 11 12 13 14 15 16 17 18 19 20 21 22 23 24 25 26 27 28 29 30
000
FTUS41 KRLX 031003 AAB
TAFEKN
TAF AMD
KEKN 031003Z 0310/0406 VRB03KT 3SM BR SCT005 BKN035
     FM031200 14004KT P6SM BKN035
     FM031700 13005KT 5SM SHRA VCTS OVC030CB
     FM032000 12005KT 3SM TSRA OVC030CB
     FM032300 12005KT 5SM SHRA BR VCTS OVC025CB
     FM040300 VRB03KT 3SM SHRA BR OVC035=

USA.gov is the U.S. government's official web portal to all federal, state and local government web resources and services.